• Join FlightAware (Why Join?)
  • Login
  • US Flag 
02:07PM EDT


 

Airport Tracker/Info


-or-


 

Live Flight TrackerFlight Track Log ✈ N589H ✈ 06-Mar-2014 ✈ CYUL - KILM

Flight Track Log - Related Links

Times and Time Zones

All times are in EST time to prevent confusion due to time zone crossing. See the N589H flight status page for this flight to view local times or setup timezone preferences in your user account.

Time Position Orientation Groundspeed Altitude Reporting Facility
EST Latitude Longitude Course Direction KTS MPH feet Rate Location/Type
06:25PM 45.4500 -73.7167 199° South 110 127 400  Level Montreal Center
06:26PM 45.4000 -73.7500 205° Southwest 170 196 2,600 2,280 Climbing Montreal Center
06:27PM 45.3500 -73.7500 180° South 170 196 5,000 2,040 Climbing Montreal Center
06:28PM 45.3167 -73.7500 180° South 180 207 6,700 1,740 Climbing Montreal Center
06:29PM 45.2500 -73.7833 199° South 200 230 8,500 1,800 Climbing Montreal Center
06:30PM 44.9599 -73.9950 199° South  Level FlightAware Approximate
06:30PM 45.2000 -73.8000 193° South 220 253 10,300  Level Montreal Center
06:31PM 45.1333 -73.8000 180° South 230 265 12,000 1,560 Climbing Montreal Center
06:32PM 45.0667 -73.8333 199° South 240 276 13,500 1,500 Climbing Montreal Center
06:33PM 45.0000 -73.8667 199° South 250 288 15,000 1,500 Climbing Montreal Center
06:34PM 44.9333 -73.8833 190° South 250 288 16,500 1,440 Climbing Montreal Center
06:35PM 44.8667 -73.8833 180° South 260 299 17,900 1,080 Climbing Montreal Center
06:36PM 44.7833 -73.9000 188° South 270 311 18,700 900 Climbing Montreal Center
06:37PM 44.7000 -73.9000 180° South 270 311 19,800 1,140 Climbing Montreal Center
06:38PM 44.6167 -73.9000 180° South 280 322 21,000 1,020 Climbing Montreal Center
06:39PM 44.6056 -73.9042 195° South 285 328 21,400 1,200 Climbing Boston Center
06:40PM 44.5244 -73.9081 182° South 291 335 22,900 1,440 Climbing Boston Center
06:41PM 44.4422 -73.9128 182° South 295 339 24,400 1,500 Climbing Boston Center
06:42PM 44.3392 -73.9194 183° South 308 354 26,000 780 Climbing Boston Center
06:43PM 44.2492 -73.9253 183° South 322 371 26,000  Level Boston Center
06:44PM 44.1483 -73.9294 182° South 357 411 26,000  Level Boston Center
06:45PM 44.0456 -73.9353 182° South 366 421 26,000  Level Boston Center
06:46PM 43.9408 -73.9400 182° South 376 433 26,000  Level Boston Center
06:47PM 43.8253 -73.9475 183° South 379 436 26,000  Level Boston Center
06:48PM 43.7197 -73.9533 182° South 379 436 26,000  Level Boston Center
06:49PM 43.6256 -73.9575 182° South 377 434 26,000  Level Boston Center
06:50PM 43.4989 -73.9644 182° South 381 438 26,000  Level Boston Center
06:51PM 43.3953 -73.9700 182° South 375 432 26,000  Level Boston Center
06:52PM 43.3000 -73.9753 182° South 376 433 26,000  Level Boston Center
06:53PM 43.1964 -73.9817 183° South 374 430 26,000  Level Boston Center
06:54PM 43.0931 -73.9872 182° South 371 427 26,000  Level Boston Center
06:55PM 42.9903 -73.9925 182° South 369 425 26,000  Level Boston Center
06:56PM 42.8689 -73.9972 182° South 364 419 26,000  Level Boston Center
06:57PM 42.7792 -74.0019 182° South 362 417 26,000  Level Boston Center
06:58PM 42.6800 -74.0069 182° South 359 413 26,000  Level Boston Center
06:59PM 42.5806 -74.0136 183° South 360 414 26,000  Level Boston Center
07:00PM 42.4622 -74.0189 182° South 358 412 26,000  Level Boston Center
07:01PM 42.3647 -74.0242 182° South 354 407 26,000  Level Boston Center
07:02PM 42.2683 -74.0286 182° South 349 402 26,000  Level Boston Center
07:03PM 42.1761 -74.0536 191° South 335 386 26,000  Level Boston Center
07:04PM 42.0883 -74.0889 197° South 331 381 26,000  Level Boston Center
07:05PM 42.0017 -74.1233 196° South 326 375 26,000  Level Boston Center
07:06PM 41.9158 -74.1581 197° South 323 372 26,000  Level Boston Center
07:07PM 41.8289 -74.1914 196° South 326 375 26,000  Level Boston Center
07:08PM 41.7328 -74.2300 197° South 324 373 26,000  Level Boston Center
07:09PM 41.6461 -74.2639 196° South 325 374 26,000  Level Boston Center
07:10PM 41.5611 -74.2975 196° South 323 372 26,000  Level Boston Center
07:12PM 41.3647 -74.3756 197° South 327 376 26,000  Level New York Center
07:13PM 41.2828 -74.4044 195° South 327 376 26,000  Level New York Center
07:14PM 41.1961 -74.4411 198° South 333 383 26,000  Level New York Center
07:15PM 41.1078 -74.4747 196° South 333 383 26,000  Level New York Center
07:16PM 41.0192 -74.5111 197° South 333 383 26,000  Level New York Center
07:17PM 40.9325 -74.5450 196° South 333 383 26,000  Level New York Center
07:18PM 40.8439 -74.5783 196° South 333 383 26,000  Level New York Center
07:19PM 40.7553 -74.6117 196° South 333 383 26,000  Level New York Center
07:20PM 40.6689 -74.6481 198° South 326 375 26,000  Level New York Center
07:21PM 40.5803 -74.6811 196° South 326 375 26,000  Level New York Center
07:22PM 40.4917 -74.7144 196° South 326 375 26,000  Level New York Center
07:23PM 40.4031 -74.7475 196° South 326 375 26,000  Level New York Center
07:25PM 40.2672 -74.7975 196° South 326 375 26,000  Level Washington Center
07:26PM 40.1797 -74.8339 198° South 326 375 26,000  Level Washington Center
07:27PM 40.0842 -74.8731 197° South 332 382 26,000  Level Washington Center
07:28PM 39.9969 -74.9064 196° South 332 382 26,000  Level Washington Center
07:29PM 39.9097 -74.9397 196° South 327 376 26,000  Level Washington Center
07:30PM 39.8222 -74.9700 195° South 322 371 26,000  Level Washington Center
07:31PM 39.7453 -75.0006 197° South 322 371 26,000  Level Washington Center
07:32PM 39.6497 -75.0364 196° South 322 371 26,000  Level Washington Center
07:33PM 39.5644 -75.0667 195° South 322 371 26,000  Level Washington Center
07:34PM 39.4792 -75.1022 198° South 322 371 26,000  Level Washington Center
07:35PM 39.3981 -75.1458 203° Southwest 322 371 26,000  Level Washington Center
07:36PM 39.3189 -75.1919 204° Southwest 322 371 26,000  Level Washington Center
07:37PM 39.2378 -75.2353 202° Southwest 322 371 26,000  Level Washington Center
07:38PM 39.1589 -75.2811 204° Southwest 317 365 26,000  Level Washington Center
07:39PM 39.0819 -75.3322 207° Southwest 317 365 26,000  Level Washington Center
07:40PM 39.0006 -75.3725 204° Southwest 317 365 26,000  Level Washington Center
07:41PM 38.9658 -75.3988 204° Southwest  Level FlightAware Approximate
07:43PM 38.7653 -75.5092 204° Southwest 317 365 26,000  Level Washington Center
07:44PM 38.6861 -75.5572 205° Southwest 317 365 26,000  Level Washington Center
07:45PM 38.6069 -75.5997 203° Southwest 317 365 26,000  Level Washington Center
07:46PM 38.5275 -75.6475 205° Southwest 317 365 26,000  Level Washington Center
07:47PM 38.4483 -75.6872 201° Southwest 317 365 26,000  Level Washington Center
07:48PM 38.4226 -75.7052 204° Southwest  Level FlightAware Approximate
07:48PM 38.3711 -75.7319 204° Southwest 311 358 26,000  Level Washington Center
07:49PM 38.2981 -75.7742 204° Southwest 311 358 26,000  Level Washington Center
07:50PM 38.2208 -75.8136 202° Southwest 316 364 26,000  Level Washington Center
07:51PM 38.1436 -75.8558 203° Southwest 311 358 26,000  Level Washington Center
07:52PM 38.0686 -75.8978 204° Southwest 305 351 26,000  Level Washington Center
07:53PM 37.9911 -75.9394 203° Southwest 300 345 26,000  Level Washington Center
07:54PM 37.9181 -75.9839 206° Southwest 294 338 26,000  Level Washington Center
07:55PM 37.8450 -76.0256 204° Southwest 300 345 26,000  Level Washington Center
07:56PM 37.7633 -76.0725 204° Southwest 300 345 26,000  Level Washington Center
07:57PM 37.6839 -76.1167 204° Southwest 300 345 26,000  Level Washington Center
07:58PM 37.6089 -76.1553 202° Southwest 300 345 26,000  Level Washington Center
07:59PM 37.5378 -76.1917 202° Southwest 300 345 26,000  Level Washington Center
08:00PM 37.4622 -76.2356 205° Southwest 300 345 26,000  Level Washington Center
08:01PM 37.3869 -76.2742 202° Southwest 295 339 26,000  Level Washington Center
08:02PM 37.3139 -76.3178 205° Southwest 295 339 26,000  Level Washington Center
08:03PM 37.2364 -76.3561 201° Southwest 295 339 26,000  Level Washington Center
08:04PM 37.1611 -76.3997 205° Southwest 295 339 26,000  Level Washington Center
08:05PM 37.0856 -76.4406 203° Southwest 295 339 26,000  Level Washington Center
08:06PM 37.0081 -76.4814 203° Southwest 295 339 26,000  Level Washington Center
08:07PM 36.9306 -76.5247 204° Southwest 295 339 26,000  Level Washington Center
08:08PM 36.8531 -76.5653 203° Southwest 295 339 26,000  Level Washington Center
08:09PM 36.7756 -76.6058 203° Southwest 295 339 26,000  Level Washington Center
08:10PM 36.6981 -76.6489 204° Southwest 295 339 26,000  Level Washington Center
08:11PM 36.6225 -76.6919 205° Southwest 295 339 26,000  Level Washington Center
08:12PM 36.5450 -76.7322 203° Southwest 295 339 26,000  Level Washington Center
08:13PM 36.4694 -76.7722 203° Southwest 295 339 26,000  Level Washington Center
08:14PM 36.3919 -76.8125 203° Southwest 295 339 26,000 -360 Level Washington Center
08:15PM 36.3142 -76.8550 204° Southwest 301 346 25,400 -600 Descending Washington Center
08:16PM 36.2303 -76.8975 202° Southwest 306 352 24,900 -540 Descending Washington Center
08:17PM 36.1528 -76.9375 203° Southwest 306 352 24,400 -540 Descending Washington Center
08:18PM 36.0750 -76.9772 202° Southwest 306 352 23,900 -540 Descending Washington Center
08:19PM 36.0014 -77.0194 205° Southwest 306 352 23,400 -540 Descending Washington Center
08:20PM 35.9239 -77.0592 203° Southwest 301 346 22,900 -720 Descending Washington Center
08:21PM 35.8461 -77.0986 202° Southwest 301 346 22,000 -1,020 Descending Washington Center
08:22PM 35.7622 -77.1433 203° Southwest 301 346 21,000 -900 Descending Washington Center
08:23PM 35.6864 -77.1828 203° Southwest 296 341 20,200 -900 Descending Washington Center
08:24PM 35.6172 -77.2169 202° Southwest 291 335 19,200 -1,020 Descending Washington Center
08:25PM 35.5478 -77.2514 202° Southwest 281 323 18,200 -900 Descending Washington Center
08:26PM 35.4806 -77.2883 204° Southwest 276 318 17,500 -900 Descending Washington Center
08:27PM 35.4111 -77.3275 205° Southwest 276 318 16,500 -960 Descending Washington Center
08:28PM 35.3586 -77.3569 205° Southwest 276 318 15,600 -960 Descending Washington Center
08:29PM 35.2828 -77.3986 204° Southwest 276 318 14,600 -1,020 Descending Washington Center
08:30PM 35.2133 -77.4403 206° Southwest 276 318 13,600 -1,020 Descending Washington Center
08:31PM 35.1417 -77.4767 203° Southwest 281 323 12,600 -1,020 Descending Washington Center
08:32PM 35.0703 -77.5181 205° Southwest 281 323 11,600 -780 Descending Washington Center
08:33PM 34.9986 -77.5622 207° Southwest 281 323 11,100 -300 Descending Washington Center
08:34PM 34.9292 -77.6008 205° Southwest 281 323 11,100 -120 Level Washington Center
08:35PM 34.8617 -77.6422 207° Southwest 281 323 10,900 -420 Descending Washington Center
08:36PM 34.7836 -77.6908 207° Southwest 281 323 10,300 -480 Descending Washington Center
08:37PM 34.7161 -77.7347 208° Southwest 281 323 10,000 -120 Descending Washington Center
08:38PM 34.6506 -77.7758 207° Southwest 281 323 10,100  Climbing Washington Center
08:39PM 34.5817 -77.7842 186° South 268 308 10,100 -300 Level Washington Center
08:40PM 34.5128 -77.7872 182° South 261 300 9,600 -780 Descending Washington Center
08:41PM 34.4458 -77.7906 182° South 256 295 8,600 -1,020 Descending Washington Center
08:42PM 34.3811 -77.7964 184° South 251 289 7,600 -1,020 Descending Washington Center
08:44PM 34.2769 -77.8923 212° Southwest  Level FlightAware Approximate